• Join FlightAware (Why Join?)
  • Login
  • US Flag 
10:07PM EST


 

Airport Tracker/Info


-or-


 

Live Flight TrackerFlight Track Log ✈ AAL2360 ✈ 15-Jun-2013 ✈ KDFW - KORD

Flight Track Log - Related Links

Times and Time Zones

All times are in EDT time to prevent confusion due to time zone crossing. See the AAL2360 flight status page for this flight to view local times or setup timezone preferences in your user account.

Time Position Orientation Groundspeed Altitude Reporting Facility
EDT Latitude Longitude Course Direction KTS MPH feet Rate Location/Type
03:40PM 32.8833 -97.0167 331° Northwest 157 181 1,200  Level Dallas / Fort Worth TRACON
03:42PM 32.8167 -97.0000 168° South 214 246 4,000 2,100 Climbing Dallas / Fort Worth TRACON
03:43PM 32.8656 -96.8000 North  Level FlightAware Approximate
03:43PM 32.7667 -96.9500 140° Southeast 237 273 6,400  Level Dallas / Fort Worth TRACON
03:44PM 32.9885 -96.8031 333° Northwest  Level FlightAware Approximate
03:44PM 32.7667 -96.8667 90° East 281 323 8,600  Level Dallas / Fort Worth TRACON
03:45PM 33.0982 -96.8709 331° Northwest  Level FlightAware Approximate
03:46PM 32.9239 -96.8219 13° North 347 399 12,100  Level Fort Worth Center
03:47PM 33.0306 -96.8486 348° North 373 429 14,300 2,400 Climbing Fort Worth Center
03:48PM 33.1328 -96.8603 355° North 400 460 17,000 2,580 Climbing Fort Worth Center
03:49PM 33.2517 -96.8719 355° North 400 460 19,500 2,100 Climbing Fort Worth Center
03:50PM 33.3539 -96.8464 12° North 405 466 21,200 1,620 Climbing Fort Worth Center
03:51PM 33.4769 -96.8033 16° North 417 480 22,800 900 Climbing Fort Worth Center
03:52PM 33.5853 -96.7628 17° North 431 496 23,000 720 Climbing Fort Worth Center
03:53PM 33.7061 -96.7194 17° North 436 502 24,300 1,140 Climbing Fort Worth Center
03:54PM 33.8269 -96.6733 18° North 442 509 25,300 1,320 Climbing Fort Worth Center
03:55PM 33.9517 -96.6297 16° North 447 514 27,000 1,500 Climbing Fort Worth Center
03:56PM 34.0789 -96.5833 17° North 459 528 28,300 1,200 Climbing Fort Worth Center
03:57PM 34.2119 -96.5319 18° North 454 522 29,400 1,260 Climbing Fort Worth Center
03:58PM 34.3303 -96.4603 27° Northeast 461 531 30,900 1,260 Climbing Fort Worth Center
03:59PM 34.4508 -96.4011 22° Northeast 466 536 32,000 960 Climbing Fort Worth Center
04:00PM 34.5736 -96.3569 16° North 461 531 32,900 480 Climbing Fort Worth Center
04:01PM 34.6919 -96.2872 26° Northeast 461 531 33,000  Climbing Fort Worth Center
04:02PM 34.7786 -96.1900 43° Northeast 461 531 33,000  Level Fort Worth Center
04:03PM 34.8756 -96.0822 42° Northeast 466 536 33,000  Level Fort Worth Center
04:04PM 34.9747 -95.9769 41° Northeast 466 536 33,000  Level Fort Worth Center
04:05PM 35.0964 -95.8733 35° Northeast 472 543 33,000  Level Fort Worth Center
04:06PM 35.2081 -95.7975 29° Northeast 472 543 33,000  Level Fort Worth Center
04:07PM 35.3261 -95.7242 27° Northeast 467 537 33,000  Level Fort Worth Center
04:08PM 35.4439 -95.6556 25° Northeast 462 532 33,000  Level Fort Worth Center
04:09PM 35.5619 -95.5867 25° Northeast 462 532 33,000  Level Fort Worth Center
04:10PM 35.7242 -95.4847 27° Northeast 475 547 33,000  Level Kansas City Center
04:11PM 35.8442 -95.4133 26° Northeast 479 551 33,000  Level Kansas City Center
04:12PM 35.9594 -95.3394 27° Northeast 473 544 33,000  Level Kansas City Center
04:13PM 36.0514 -95.2281 44° Northeast 469 540 33,000  Level Kansas City Center
04:14PM 36.1075 -95.0792 65° Northeast 477 549 33,000  Level Kansas City Center
04:15PM 36.1594 -94.9283 67° East 480 552 33,000  Level Kansas City Center
04:16PM 36.2028 -94.7758 71° East 477 549 33,000  Level Kansas City Center
04:17PM 36.2514 -94.5911 72° East 475 547 33,000  Level Kansas City Center
04:18PM 36.2917 -94.4356 72° East 474 545 33,000  Level Kansas City Center
04:19PM 36.3536 -94.2931 62° Northeast 476 548 33,000  Level Kansas City Center
04:20PM 36.4325 -94.1617 53° Northeast 474 545 33,000  Level Kansas City Center
04:21PM 36.5172 -94.0369 50° Northeast 473 544 33,000  Level Kansas City Center
04:22PM 36.6044 -93.9133 49° Northeast 474 545 33,000  Level Kansas City Center
04:23PM 36.6906 -93.7892 49° Northeast 475 547 33,000  Level Kansas City Center
04:24PM 36.8047 -93.6833 37° Northeast 470 541 33,000  Level Kansas City Center
04:25PM 36.9114 -93.5850 36° Northeast 468 539 33,000  Level Kansas City Center
04:26PM 37.0200 -93.4903 35° Northeast 471 542 33,000  Level Kansas City Center
04:27PM 37.1186 -93.3842 41° Northeast 469 540 33,000  Level Kansas City Center
04:28PM 37.1553 -93.2211 74° East 477 549 33,000  Level Kansas City Center
04:29PM 37.2361 -93.0925 52° Northeast 474 545 33,000  Level Kansas City Center
04:30PM 37.3403 -92.9961 36° Northeast 467 537 33,000  Level Kansas City Center
04:31PM 37.4692 -92.8847 34° Northeast 467 537 33,000  Level Kansas City Center
04:32PM 37.5800 -92.7917 34° Northeast 473 544 33,000  Level Kansas City Center
04:33PM 37.6811 -92.7036 35° Northeast 482 555 33,000  Level Kansas City Center
04:34PM 37.7908 -92.6114 34° Northeast 478 550 33,000  Level Kansas City Center
04:36PM 37.8997 -92.5192 34° Northeast 477 549 33,000  Level Kansas City Center
04:37PM 38.0336 -92.4042 34° Northeast 484 557 33,000  Level Kansas City Center
04:38PM 38.1489 -92.3108 32° Northeast 487 560 33,000  Level Kansas City Center
04:39PM 38.2572 -92.2153 35° Northeast 480 552 33,000  Level Kansas City Center
04:40PM 38.3683 -92.1186 34° Northeast 480 552 33,000  Level Kansas City Center
04:41PM 38.4797 -92.0217 34° Northeast 481 554 33,000  Level Kansas City Center
04:42PM 38.5906 -91.9256 34° Northeast 481 554 33,000  Level Kansas City Center
04:43PM 38.7017 -91.8281 34° Northeast 482 555 33,000  Level Kansas City Center
04:44PM 38.8125 -91.7306 34° Northeast 482 555 33,000  Level Kansas City Center
04:45PM 38.9469 -91.6150 34° Northeast 482 555 33,000  Level Kansas City Center
04:46PM 39.0594 -91.5161 34° Northeast 487 560 33,000  Level Kansas City Center
04:47PM 39.1731 -91.4164 34° Northeast 490 564 33,000  Level Kansas City Center
04:48PM 39.2844 -91.3167 35° Northeast 489 563 33,000  Level Kansas City Center
04:49PM 39.3964 -91.2167 35° Northeast 488 562 33,000  Level Kansas City Center
04:50PM 39.5081 -91.1169 35° Northeast 487 560 33,000  Level Kansas City Center
04:51PM 39.6200 -91.0161 35° Northeast 488 562 33,000  Level Kansas City Center
04:52PM 39.7319 -90.9156 35° Northeast 488 562 33,000  Level Kansas City Center
04:53PM 39.8542 -90.8036 35° Northeast 487 560 33,000  Level Kansas City Center
04:54PM 39.9653 -90.7031 35° Northeast 486 559 33,000  Level Kansas City Center
04:55PM 40.0756 -90.6003 35° Northeast 487 560 33,000  Level Kansas City Center
04:56PM 40.1861 -90.4986 35° Northeast 485 558 33,000  Level Kansas City Center
04:57PM 40.2978 -90.3958 35° Northeast 487 560 33,000  Level Kansas City Center
04:58PM 40.4086 -90.2928 35° Northeast 488 562 33,000  Level Kansas City Center
04:59PM 40.5089 -90.1994 35° Northeast 486 559 33,000  Level Chicago Center
05:00PM 40.6436 -90.0758 35° Northeast 492 566 33,000 -1,020 Level Chicago Center
05:01PM 40.7567 -89.9711 35° Northeast 497 572 31,000 -2,100 Descending Chicago Center
05:02PM 40.8686 -89.8644 36° Northeast 501 577 28,800 -2,280 Descending Chicago Center
05:03PM 40.9819 -89.7581 35° Northeast 502 578 26,400 -2,100 Descending Chicago Center
05:04PM 41.0903 -89.6544 36° Northeast 492 566 24,500 -2,040 Descending Chicago Center
05:05PM 41.1836 -89.5331 44° Northeast 475 547 22,300 -2,280 Descending Chicago Center
05:06PM 41.2469 -89.3781 61° Northeast 474 545 19,900 -2,400 Descending Chicago Center
05:07PM 41.3175 -89.2031 62° Northeast 443 510 17,400 -2,160 Descending Chicago Center
05:08PM 41.3681 -89.0736 62° Northeast 410 472 15,500 -2,040 Descending Chicago Center
05:09PM 41.4175 -88.9489 62° Northeast 385 443 13,300 -2,040 Descending Chicago Center
05:10PM 41.4661 -88.8250 62° Northeast 379 436 11,400 -1,140 Descending Chicago Center
05:11PM 41.5161 -88.6958 63° Northeast 389 448 11,000 -240 Descending Chicago Center
05:12PM 41.5661 -88.5678 62° Northeast 389 448 11,000  Level Chicago Center
05:13PM 41.6325 -88.4206 59° Northeast 385 443 11,000  Level Chicago Center
05:14PM 41.6997 -88.3086 51° Northeast 384 442 11,000  Level Chicago Center
05:15PM 41.7694 -88.2003 49° Northeast 383 441 11,000  Level Chicago Center
05:16PM 41.8514 -88.1097 39° Northeast 378 435 11,000  Level Chicago Center
05:17PM 41.8833 -88.0833 32° Northeast 383 441 11,000 -240 Level Chicago TRACON
05:18PM 41.9667 -88.0000 37° Northeast 339 390 10,700 -600 Descending Chicago TRACON
05:19PM 42.0333 -87.9500 29° Northeast 346 398 9,900 -1,260 Descending Chicago TRACON
05:20PM 42.1000 -87.8833 37° Northeast 281 323 8,200 -1,620 Descending Chicago TRACON
05:21PM 42.1544 -87.8333 34° Northeast 288 331 7,000 -720 Descending Chicago Center
05:22PM 42.2167 -87.7736 35° Northeast 278 320 6,900  Descending Chicago Center
05:23PM 42.2694 -87.7233 35° Northeast 240 276 7,000 -180 Climbing Chicago Center
05:24PM 42.3047 -87.6564 55° Northeast 241 277 6,600 -1,020 Descending Chicago Center
05:25PM 42.2508 -87.6319 161° South 245 282 5,000 -780 Descending Chicago Center
05:26PM 42.1978 -87.6719 209° Southwest 223 257 5,000 -240 Level Chicago Center
05:27PM 42.1528 -87.7242 221° Southwest 217 250 4,600 -420 Descending Chicago Center